Time;durP1;ratioP1;P1;durP2;ratioP2;P2;SDS_P1;SDS_P2;PMS_P1;PMS_P2;Temp;Humidity;BMP_temperature;BMP_pressure;BME280_temperature;BME280_humidity;BME280_pressure;Samples;Min_cycle;Max_cycle;Signal;HPM_P1;HPM_P2
2022/01/25 00:34:46;;;;;;;82.60;39.23;;;;;-1.60;102862.00;;;;10491381;28;20196;-79
2022/01/25 00:39:48;;;;;;;80.90;38.53;;;;;-1.60;102871.00;;;;10507292;28;20575;-79
2022/01/25 00:44:50;;;;;;;79.60;39.57;;;;;-1.70;102867.00;;;;10485178;28;20185;-79
2022/01/25 00:49:53;;;;;;;86.30;42.17;;;;;-1.70;102867.00;;;;10428977;28;20210;-79
2022/01/25 00:54:58;;;;;;;85.83;41.00;;;;;-1.70;102866.00;;;;10462806;28;20189;-79
2022/01/25 01:00:01;;;;;;;81.63;40.30;;;;;-1.80;102864.00;;;;10491044;28;20540;-79
2022/01/25 01:05:04;;;;;;;84.20;40.13;;;;;-1.80;102858.00;;;;10489428;28;20212;-79
2022/01/25 01:10:06;;;;;;;82.27;39.93;;;;;-1.80;102859.00;;;;10498869;28;20278;-79
2022/01/25 01:47:21;;;;;;;88.13;39.97;;;;;-2.00;102852.00;;;;10467454;28;20284;-79
2022/01/25 01:52:23;;;;;;;96.07;42.70;;;;;-2.00;102850.00;;;;10429870;28;20221;-79
2022/01/25 01:57:25;;;;;;;89.83;42.03;;;;;-1.90;102863.00;;;;10449481;28;20200;-79
2022/01/25 02:02:27;;;;;;;92.20;43.57;;;;;-2.00;102868.00;;;;10481166;28;20604;-79
2022/01/25 02:07:29;;;;;;;88.73;42.10;;;;;-2.00;102856.00;;;;10480388;28;20695;-79
2022/01/25 02:12:31;;;;;;;92.77;41.37;;;;;-2.00;102851.00;;;;10463323;28;20213;-79
2022/01/25 02:17:53;;;;;;;92.20;39.97;;;;;-2.00;102840.00;;;;10497846;28;20198;-79
2022/01/25 02:22:56;;;;;;;86.50;42.73;;;;;-2.00;102854.00;;;;10497612;28;20185;-78
2022/01/25 02:27:58;;;;;;;97.17;42.37;;;;;-2.10;102846.00;;;;10439162;28;20205;-79
2022/01/25 02:33:00;;;;;;;90.37;40.60;;;;;-2.10;102847.00;;;;10496568;28;20221;-79
2022/01/25 02:38:03;;;;;;;88.10;40.13;;;;;-2.10;102849.00;;;;10463845;28;20584;-79
2022/01/25 02:43:05;;;;;;;93.33;40.40;;;;;-2.10;102852.00;;;;10454597;28;20190;-79
2022/01/25 02:53:28;;;;;;;102.33;42.60;;;;;-2.10;102843.00;;;;10445763;28;20209;-78
2022/01/25 02:58:30;;;;;;;89.07;40.70;;;;;-2.00;102848.00;;;;10479967;28;20267;-78
2022/01/25 03:03:32;;;;;;;97.83;41.87;;;;;-2.00;102842.00;;;;10458143;28;20212;-78
2022/01/25 03:08:35;;;;;;;84.93;38.83;;;;;-2.00;102843.00;;;;10470588;28;20245;-78
2022/01/25 03:14:00;;;;;;;82.60;39.40;;;;;-2.00;102837.00;;;;10501500;28;20223;-79
2022/01/25 03:19:29;;;;;;;105.80;41.63;;;;;-1.90;102840.00;;;;10469502;28;20193;-79
2022/01/25 03:24:28;;;;;;;105.70;41.83;;;;;-1.60;102832.00;;;;10469575;28;20185;-79
2022/01/25 03:29:29;;;;;;;101.97;42.97;;;;;-1.40;102826.00;;;;10486685;28;20196;-79
2022/01/25 03:34:31;;;;;;;102.17;43.43;;;;;-1.20;102815.00;;;;10486235;28;20193;-79
2022/01/25 03:39:33;;;;;;;101.03;45.97;;;;;-1.00;102815.00;;;;10502853;28;20193;-78
2022/01/25 03:44:35;;;;;;;107.97;45.70;;;;;-0.90;102818.00;;;;10486098;28;20212;-78
2022/01/25 03:49:50;;;;;;;124.17;45.80;;;;;-0.80;102815.00;;;;10469768;28;20211;-79
2022/01/25 03:54:53;;;;;;;112.07;47.67;;;;;-0.70;102813.00;;;;10445128;28;20276;-79
2022/01/25 03:59:58;;;;;;;106.50;42.53;;;;;-0.60;102812.00;;;;10445606;28;20191;-78
2022/01/25 04:05:01;;;;;;;129.10;47.63;;;;;-0.50;102802.00;;;;10427259;28;20589;-78
2022/01/25 04:10:03;;;;;;;120.80;46.30;;;;;-0.40;102815.00;;;;10450964;28;20218;-78
2022/01/25 04:15:05;;;;;;;121.23;43.97;;;;;-0.30;102822.00;;;;10501168;28;20182;-78
2022/01/25 04:20:19;;;;;;;114.00;41.30;;;;;-0.30;102815.00;;;;10450924;28;20189;-78
2022/01/25 04:25:21;;;;;;;116.43;41.60;;;;;-0.20;102802.00;;;;10500606;28;20201;-79
2022/01/25 04:30:23;;;;;;;129.27;46.57;;;;;-0.10;102802.00;;;;10499982;28;20220;-78
2022/01/25 04:51:39;;;;;;;121.00;38.53;;;;;0.20;102793.00;;;;10499494;28;20213;-78
2022/01/25 05:01:43;;;;;;;138.93;44.57;;;;;0.30;102788.00;;;;10449794;28;20718;-78
2022/01/25 05:06:48;;;;;;;113.13;38.10;;;;;0.30;102784.00;;;;10466984;28;20221;-79
2022/01/25 05:11:51;;;;;;;115.63;39.30;;;;;0.40;102787.00;;;;10465882;28;20217;-79
2022/01/25 05:16:57;;;;;;;153.73;40.70;;;;;0.40;102775.00;;;;10465981;28;20194;-78
2022/01/25 05:27:26;;;;;;;136.17;41.40;;;;;0.50;102777.00;;;;10449571;28;20288;-78
2022/01/25 05:32:32;;;;;;;127.37;39.27;;;;;0.50;102766.00;;;;10481968;28;20213;-78
2022/01/25 05:37:41;;;;;;;126.50;36.57;;;;;0.50;102757.00;;;;10457545;28;20834;-78
2022/01/25 05:43:53;;;;;;;126.70;38.43;;;;;0.50;102757.00;;;;10468745;28;20197;-78
2022/01/25 05:48:12;;;;;;;118.03;36.63;;;;;0.60;102759.00;;;;10449199;28;20189;-78
2022/01/25 05:53:14;;;;;;;128.00;38.87;;;;;0.60;102760.00;;;;10462621;28;20216;-78
2022/01/25 05:58:16;;;;;;;145.07;38.30;;;;;0.60;102770.00;;;;10490816;28;20288;-78
2022/01/25 06:03:18;;;;;;;126.93;35.73;;;;;0.60;102771.00;;;;10430818;28;20197;-79
2022/01/25 06:08:20;;;;;;;133.37;40.23;;;;;0.60;102753.00;;;;10462092;28;20217;-78
2022/01/25 06:13:22;;;;;;;132.33;39.57;;;;;0.60;102764.00;;;;10450734;28;20266;-79
2022/01/25 06:18:24;;;;;;;146.17;38.73;;;;;0.60;102764.00;;;;10471475;28;20263;-78
2022/01/25 06:23:26;;;;;;;143.77;37.70;;;;;0.60;102762.00;;;;10489161;28;20988;-78
2022/01/25 06:28:28;;;;;;;126.27;38.03;;;;;0.60;102760.00;;;;10472759;28;20200;-78
2022/01/25 06:33:30;;;;;;;134.90;36.97;;;;;0.60;102769.00;;;;10455654;28;20205;-78
2022/01/25 06:38:32;;;;;;;160.00;41.27;;;;;0.60;102767.00;;;;10471513;28;20217;-78
2022/01/25 06:43:34;;;;;;;142.43;38.23;;;;;0.70;102780.00;;;;10487303;28;20192;-78
2022/01/25 06:48:36;;;;;;;154.30;40.37;;;;;0.70;102772.00;;;;10458904;28;20194;-79
2022/01/25 06:53:39;;;;;;;146.87;37.53;;;;;0.70;102785.00;;;;10435245;28;20252;-78
2022/01/25 06:58:41;;;;;;;139.87;36.30;;;;;0.70;102800.00;;;;10457769;28;20239;-78
2022/01/25 07:03:44;;;;;;;161.33;40.20;;;;;0.70;102797.00;;;;10460482;28;20198;-76
2022/01/25 07:08:46;;;;;;;152.33;37.23;;;;;0.70;102805.00;;;;10457243;28;20218;-77
2022/01/25 07:13:48;;;;;;;136.00;36.23;;;;;0.70;102813.00;;;;10445896;28;20202;-77
2022/01/25 07:18:51;;;;;;;169.53;40.40;;;;;0.70;102822.00;;;;10502470;28;20261;-77
2022/01/25 07:23:53;;;;;;;153.03;40.50;;;;;0.70;102822.00;;;;10409429;28;20190;-77
2022/01/25 07:28:55;;;;;;;160.20;40.20;;;;;0.80;102817.00;;;;10480988;28;20194;-78
2022/01/25 07:33:57;;;;;;;169.83;40.63;;;;;0.80;102816.00;;;;10507504;28;20213;-77
2022/01/25 07:39:09;;;;;;;164.17;40.83;;;;;0.80;102817.00;;;;10432055;28;20213;-77
2022/01/25 07:44:12;;;;;;;172.87;43.53;;;;;0.80;102809.00;;;;10477162;28;20543;-77
2022/01/25 07:49:18;;;;;;;167.03;41.20;;;;;0.90;102817.00;;;;10452558;28;20247;-77
2022/01/25 07:54:20;;;;;;;147.17;39.17;;;;;0.90;102811.00;;;;10441518;28;20237;-77
2022/01/25 07:59:22;;;;;;;171.87;38.97;;;;;1.00;102812.00;;;;10471418;28;20200;-78
2022/01/25 08:04:26;;;;;;;165.13;41.10;;;;;1.00;102825.00;;;;10484805;28;20712;-77
2022/01/25 08:09:35;;;;;;;167.23;41.80;;;;;1.00;102829.00;;;;10474290;28;20209;-77
2022/01/25 08:14:43;;;;;;;161.80;41.10;;;;;1.10;102839.00;;;;10464486;28;20738;-77
2022/01/25 08:20:03;;;;;;;175.37;41.90;;;;;1.10;102833.00;;;;10449854;28;20204;-77
2022/01/25 08:25:17;;;;;;;151.97;39.87;;;;;1.20;102840.00;;;;10447036;28;20642;-77
2022/01/25 08:30:29;;;;;;;154.80;38.80;;;;;1.30;102830.00;;;;10477276;28;20201;-77
2022/01/25 08:35:45;;;;;;;164.60;42.60;;;;;1.40;102840.00;;;;10487163;28;20719;-77
2022/01/25 08:41:01;;;;;;;142.60;37.73;;;;;1.50;102850.00;;;;10453834;28;20193;-77
2022/01/25 08:46:11;;;;;;;164.83;42.60;;;;;1.50;102847.00;;;;10461442;28;20201;-77
2022/01/25 08:51:16;;;;;;;147.23;40.63;;;;;1.60;102834.00;;;;10480364;28;20565;-77
2022/01/25 08:56:40;;;;;;;153.60;39.53;;;;;1.60;102848.00;;;;10486515;28;20255;-77
2022/01/25 09:02:00;;;;;;;137.90;37.27;;;;;1.70;102838.00;;;;10357478;28;20213;-77
2022/01/25 09:07:04;;;;;;;152.23;40.03;;;;;1.70;102850.00;;;;10340170;28;20223;-77
2022/01/25 09:12:07;;;;;;;154.80;39.43;;;;;1.70;102849.00;;;;10349661;28;20702;-77
2022/01/25 09:17:10;;;;;;;157.87;41.43;;;;;1.80;102855.00;;;;10344195;28;20207;-77
2022/01/25 09:22:12;;;;;;;160.63;42.17;;;;;1.90;102856.00;;;;10355410;28;20278;-77
2022/01/25 09:27:14;;;;;;;152.17;41.10;;;;;2.00;102862.00;;;;10339068;28;20195;-77
2022/01/25 09:32:18;;;;;;;149.70;42.10;;;;;2.10;102862.00;;;;10340546;28;20797;-77
2022/01/25 09:37:21;;;;;;;152.87;41.83;;;;;2.20;102876.00;;;;10388858;28;20208;-78
2022/01/25 09:42:28;;;;;;;137.50;40.60;;;;;2.30;102880.00;;;;10423169;28;20669;-78
2022/01/25 09:47:31;;;;;;;145.50;45.60;;;;;2.30;102876.00;;;;10457288;28;20204;-78
2022/01/25 09:52:35;;;;;;;134.27;40.63;;;;;2.50;102868.00;;;;10451626;28;20692;-78
2022/01/25 09:57:38;;;;;;;134.37;37.33;;;;;2.60;102880.00;;;;10498091;28;20194;-78
2022/01/25 10:02:49;;;;;;;127.83;38.77;;;;;2.70;102882.00;;;;10457722;28;20256;-78
2022/01/25 10:08:18;;;;;;;145.13;39.47;;;;;2.80;102898.00;;;;10451582;28;20209;-78
2022/01/25 10:13:29;;;;;;;129.70;40.07;;;;;2.80;102883.00;;;;10458769;28;20210;-76
2022/01/25 10:18:51;;;;;;;138.63;43.80;;;;;2.80;102901.00;;;;10424184;28;20601;-76
2022/01/25 10:24:09;;;;;;;131.03;38.77;;;;;2.80;102898.00;;;;10481703;28;20192;-76
2022/01/25 10:29:37;;;;;;;130.23;39.93;;;;;2.90;102905.00;;;;10484228;28;20190;-77
2022/01/25 10:34:46;;;;;;;117.77;37.20;;;;;3.20;102898.00;;;;10442295;28;20206;-76
2022/01/25 10:39:52;;;;;;;115.03;38.67;;;;;3.30;102890.00;;;;10506688;28;20182;-76
2022/01/25 10:45:06;;;;;;;120.20;37.47;;;;;3.30;102885.00;;;;10471582;28;20664;-77
2022/01/25 10:50:16;;;;;;;113.53;36.73;;;;;3.40;102877.00;;;;10467653;28;20270;-77
2022/01/25 10:55:18;;;;;;;122.03;38.27;;;;;3.40;102875.00;;;;10463733;28;20205;-77
2022/01/25 11:00:31;;;;;;;134.53;41.90;;;;;3.50;102878.00;;;;10487775;28;20192;-77
2022/01/25 11:05:36;;;;;;;117.90;37.93;;;;;3.40;102888.00;;;;10457684;28;20197;-76
2022/01/25 11:10:46;;;;;;;104.87;37.30;;;;;3.40;102881.00;;;;10470033;28;20221;-77
2022/01/25 11:15:49;;;;;;;121.00;38.37;;;;;3.30;102878.00;;;;10479691;28;20190;-77
2022/01/25 11:20:52;;;;;;;115.40;38.57;;;;;3.30;102878.00;;;;10469668;28;20223;-77
2022/01/25 11:32:14;;;;;;;113.73;36.57;;;;;3.30;102866.00;;;;10459083;28;20239;-77
2022/01/25 11:37:17;;;;;;;120.07;39.40;;;;;3.20;102864.00;;;;10471847;28;20254;-77
2022/01/25 11:42:24;;;;;;;114.57;36.60;;;;;3.30;102872.00;;;;10454128;28;20240;-77
2022/01/25 11:47:32;;;;;;;111.93;37.50;;;;;3.30;102868.00;;;;10485118;28;20247;-77
2022/01/25 11:52:35;;;;;;;116.63;38.47;;;;;3.30;102863.00;;;;10463027;28;20245;-77
2022/01/25 11:57:46;;;;;;;116.87;39.07;;;;;3.40;102875.00;;;;10495458;28;20205;-77
2022/01/25 12:02:51;;;;;;;121.03;38.60;;;;;3.40;102871.00;;;;10477011;28;20669;-77
2022/01/25 12:08:16;;;;;;;110.87;36.87;;;;;3.50;102880.00;;;;10464974;28;20248;-77
2022/01/25 12:13:29;;;;;;;111.67;38.07;;;;;3.50;102871.00;;;;10463210;28;20672;-77
2022/01/25 12:18:52;;;;;;;94.00;34.97;;;;;3.50;102860.00;;;;10449552;28;20284;-77
2022/01/25 12:24:26;;;;;;;98.70;36.13;;;;;3.50;102866.00;;;;10457657;28;20203;-76
2022/01/25 12:29:42;;;;;;;104.97;38.17;;;;;3.50;102859.00;;;;10473852;28;20292;-77
2022/01/25 12:35:08;;;;;;;99.23;36.67;;;;;3.40;102855.00;;;;10468026;28;20802;-76
2022/01/25 12:40:26;;;;;;;94.40;34.73;;;;;3.40;102858.00;;;;10463871;28;20205;-76
2022/01/25 12:45:48;;;;;;;92.30;36.23;;;;;3.50;102858.00;;;;10461375;28;20189;-76
2022/01/25 12:50:52;;;;;;;103.07;40.10;;;;;3.50;102846.00;;;;10475099;28;20194;-78
2022/01/25 12:56:03;;;;;;;93.37;40.13;;;;;3.50;102850.00;;;;10444928;28;20629;-76
2022/01/25 13:01:10;;;;;;;95.63;37.10;;;;;3.50;102848.00;;;;10476687;28;20194;-78
2022/01/25 13:06:17;;;;;;;93.93;39.17;;;;;3.50;102847.00;;;;10511357;28;20189;-78
2022/01/25 13:11:48;;;;;;;98.70;41.23;;;;;3.60;102838.00;;;;10468125;28;20214;-78
2022/01/25 13:17:01;;;;;;;95.10;39.83;;;;;3.60;102838.00;;;;10476492;28;20200;-76
2022/01/25 13:22:28;;;;;;;86.33;37.07;;;;;3.60;102837.00;;;;10463658;28;20210;-78
2022/01/25 13:27:33;;;;;;;89.73;38.07;;;;;3.60;102835.00;;;;10501825;28;20195;-76
2022/01/25 13:32:38;;;;;;;89.60;38.57;;;;;3.50;102814.00;;;;10465906;28;20209;-78
2022/01/25 13:37:41;;;;;;;87.27;37.50;;;;;3.50;102813.00;;;;10488723;28;20652;-77
2022/01/25 13:42:57;;;;;;;95.60;40.47;;;;;3.50;102815.00;;;;10458062;28;20568;-77
2022/01/25 13:48:05;;;;;;;94.33;38.67;;;;;3.50;102814.00;;;;10501110;28;20709;-79
2022/01/25 13:53:09;;;;;;;83.87;38.53;;;;;3.50;102803.00;;;;10476178;28;20240;-79
2022/01/25 13:58:23;;;;;;;88.67;39.87;;;;;3.60;102811.00;;;;10479427;28;20649;-79
2022/01/25 14:03:27;;;;;;;86.57;40.87;;;;;3.60;102805.00;;;;10495789;28;20246;-79
2022/01/25 14:08:42;;;;;;;80.47;36.53;;;;;3.60;102794.00;;;;10498246;28;20222;-78
2022/01/25 14:24:52;;;;;;;91.93;40.23;;;;;3.60;102817.00;;;;10381159;28;20192;-76
2022/01/25 14:29:55;;;;;;;85.93;38.57;;;;;3.60;102810.00;;;;10467283;28;20892;-79
2022/01/25 14:35:10;;;;;;;83.40;36.70;;;;;3.60;102815.00;;;;10474836;28;20209;-79
2022/01/25 14:40:14;;;;;;;71.27;34.00;;;;;3.60;102807.00;;;;10491310;28;20197;-78
2022/01/25 14:45:22;;;;;;;90.07;39.57;;;;;3.60;102813.00;;;;10472040;28;20279;-77
2022/01/25 14:50:32;;;;;;;97.13;40.80;;;;;3.60;102814.00;;;;10478912;28;20190;-77
2022/01/25 14:55:36;;;;;;;81.10;36.20;;;;;3.60;102808.00;;;;10452959;28;20208;-75
2022/01/25 15:00:54;;;;;;;88.60;37.47;;;;;3.50;102811.00;;;;10501939;28;20224;-77
2022/01/25 15:05:56;;;;;;;81.33;36.37;;;;;3.50;102801.00;;;;10448117;28;20299;-77
2022/01/25 15:11:00;;;;;;;73.57;33.63;;;;;3.50;102809.00;;;;10502178;28;20244;-77
2022/01/25 15:16:03;;;;;;;74.63;33.20;;;;;3.40;102815.00;;;;10484404;28;20229;-78
2022/01/25 15:21:07;;;;;;;74.87;34.77;;;;;3.40;102809.00;;;;10449408;28;20198;-78
2022/01/25 15:26:11;;;;;;;75.53;35.60;;;;;3.40;102810.00;;;;10477513;28;20193;-78
2022/01/25 15:31:17;;;;;;;84.97;37.17;;;;;3.30;102807.00;;;;10460709;28;20191;-78
2022/01/25 15:36:21;;;;;;;88.90;37.83;;;;;3.30;102805.00;;;;10488807;28;20194;-78
2022/01/25 15:41:24;;;;;;;97.17;37.67;;;;;3.30;102810.00;;;;10467312;28;20285;-78
2022/01/25 15:46:33;;;;;;;92.27;39.53;;;;;3.30;102804.00;;;;10479228;28;20284;-78
2022/01/25 15:51:35;;;;;;;85.63;34.50;;;;;3.20;102808.00;;;;10453394;28;20212;-78
2022/01/25 15:56:37;;;;;;;92.93;36.57;;;;;3.20;102795.00;;;;10469663;28;20193;-77
2022/01/25 16:01:42;;;;;;;84.37;36.23;;;;;3.20;102797.00;;;;10473943;28;20264;-78
2022/01/25 16:06:44;;;;;;;97.87;37.57;;;;;3.10;102794.00;;;;10511001;28;20357;-78
2022/01/25 16:11:47;;;;;;;91.93;36.30;;;;;3.10;102777.00;;;;10452483;28;20205;-78
2022/01/25 16:16:49;;;;;;;92.77;37.77;;;;;3.10;102780.00;;;;10481486;28;20219;-78
2022/01/25 16:21:55;;;;;;;96.30;36.43;;;;;3.10;102785.00;;;;10469962;28;20189;-78
2022/01/25 16:26:57;;;;;;;92.13;35.37;;;;;3.00;102788.00;;;;10447521;28;20284;-78
2022/01/25 16:32:01;;;;;;;100.80;36.90;;;;;3.00;102779.00;;;;10454568;28;20308;-78
2022/01/25 16:37:03;;;;;;;90.77;36.47;;;;;3.00;102792.00;;;;10469644;28;20563;-78
2022/01/25 16:42:07;;;;;;;95.77;34.37;;;;;2.90;102790.00;;;;10431904;28;20198;-78
2022/01/25 16:47:32;;;;;;;99.83;34.83;;;;;2.90;102797.00;;;;10463519;28;20185;-79
2022/01/25 16:52:34;;;;;;;100.30;34.60;;;;;2.90;102788.00;;;;10476636;28;20197;-78
2022/01/25 16:57:37;;;;;;;102.00;36.13;;;;;2.80;102795.00;;;;10457410;28;20193;-77
2022/01/25 17:02:39;;;;;;;96.07;35.27;;;;;2.80;102791.00;;;;10447539;28;20193;-77
2022/01/25 17:07:42;;;;;;;94.80;34.13;;;;;2.80;102791.00;;;;10462334;28;20259;-78
2022/01/25 17:12:44;;;;;;;103.13;34.50;;;;;2.80;102790.00;;;;10455250;28;20660;-77
2022/01/25 17:17:47;;;;;;;95.57;33.13;;;;;2.80;102782.00;;;;10429085;28;20252;-78
2022/01/25 17:22:50;;;;;;;113.83;37.03;;;;;2.80;102799.00;;;;10461378;28;20197;-77
2022/01/25 17:27:52;;;;;;;101.53;35.73;;;;;2.80;102798.00;;;;10453561;28;20257;-78
2022/01/25 17:32:54;;;;;;;105.40;35.63;;;;;2.80;102793.00;;;;10453663;28;20853;-78
2022/01/25 17:37:56;;;;;;;93.87;35.57;;;;;2.80;102795.00;;;;10478773;28;20251;-78
2022/01/25 17:42:58;;;;;;;110.17;37.50;;;;;2.80;102789.00;;;;10426194;28;20198;-77
2022/01/25 17:48:00;;;;;;;97.03;36.80;;;;;2.90;102790.00;;;;10438743;28;20199;-77
2022/01/25 17:53:03;;;;;;;95.00;34.43;;;;;2.80;102787.00;;;;10450503;28;20645;-76
2022/01/25 17:58:05;;;;;;;101.63;34.87;;;;;2.80;102792.00;;;;10446195;28;20186;-77
2022/01/25 18:03:07;;;;;;;94.93;33.33;;;;;2.80;102790.00;;;;10479993;28;20193;-77
2022/01/25 18:08:09;;;;;;;92.60;32.13;;;;;2.80;102787.00;;;;10455244;28;20297;-77
2022/01/25 18:13:11;;;;;;;90.97;33.40;;;;;2.70;102800.00;;;;10452814;28;20205;-77
2022/01/25 18:18:14;;;;;;;102.00;33.80;;;;;2.70;102797.00;;;;10471618;28;20730;-80
2022/01/25 18:23:21;;;;;;;106.93;34.20;;;;;2.70;102797.00;;;;10469432;28;20204;-77
2022/01/25 18:28:25;;;;;;;98.33;33.97;;;;;2.70;102801.00;;;;10470682;28;20197;-77
2022/01/25 18:33:27;;;;;;;100.23;33.60;;;;;2.70;102797.00;;;;10486786;28;20249;-77
2022/01/25 18:38:29;;;;;;;99.57;32.83;;;;;2.70;102788.00;;;;10483445;28;20564;-77
2022/01/25 18:43:31;;;;;;;104.33;35.20;;;;;2.60;102782.00;;;;10453796;28;20194;-76
2022/01/25 18:48:36;;;;;;;109.80;35.03;;;;;2.60;102794.00;;;;10486271;28;20189;-77
2022/01/25 18:53:38;;;;;;;97.87;35.60;;;;;2.70;102793.00;;;;10469643;28;20202;-77
2022/01/25 18:58:40;;;;;;;90.97;34.20;;;;;2.60;102791.00;;;;10452964;28;20794;-77
2022/01/25 19:03:42;;;;;;;89.07;31.20;;;;;2.60;102795.00;;;;10428047;28;20194;-77
2022/01/25 19:08:45;;;;;;;93.33;31.27;;;;;2.60;102800.00;;;;10498617;28;20270;-78
2022/01/25 19:13:48;;;;;;;91.03;33.33;;;;;2.60;102807.00;;;;10488165;28;20212;-77
2022/01/25 19:18:52;;;;;;;92.57;31.10;;;;;2.60;102793.00;;;;10452027;28;20194;-77
2022/01/25 19:23:54;;;;;;;95.73;33.33;;;;;2.60;102813.00;;;;10450670;28;20178;-77
2022/01/25 19:28:56;;;;;;;91.40;31.90;;;;;2.60;102810.00;;;;10434593;28;20204;-78
2022/01/25 19:33:58;;;;;;;98.80;34.43;;;;;2.60;102810.00;;;;10451155;28;20209;-77
2022/01/25 19:39:02;;;;;;;91.17;31.60;;;;;2.60;102809.00;;;;10451636;28;20212;-78
2022/01/25 19:44:04;;;;;;;92.73;33.50;;;;;2.70;102810.00;;;;10484790;28;20193;-78
2022/01/25 19:49:09;;;;;;;100.30;34.33;;;;;2.70;102804.00;;;;10482739;28;20215;-78
2022/01/25 19:54:16;;;;;;;99.53;36.40;;;;;2.70;102806.00;;;;10451577;28;20220;-77
2022/01/25 19:59:21;;;;;;;85.97;30.57;;;;;2.70;102789.00;;;;10450309;28;20201;-80
2022/01/25 20:04:23;;;;;;;97.90;30.70;;;;;2.60;102799.00;;;;10449081;28;20727;-77
2022/01/25 20:09:26;;;;;;;87.23;30.27;;;;;2.60;102801.00;;;;10476686;28;20213;-77
2022/01/25 20:14:29;;;;;;;92.43;31.57;;;;;2.60;102810.00;;;;10465729;28;20677;-78
2022/01/25 20:19:31;;;;;;;83.17;31.37;;;;;2.60;102799.00;;;;10465702;28;20206;-77
2022/01/25 20:24:45;;;;;;;106.23;34.57;;;;;2.60;102798.00;;;;10462527;28;20189;-80
2022/01/25 20:29:55;;;;;;;104.20;34.37;;;;;2.60;102799.00;;;;10465820;28;20189;-81
2022/01/25 20:34:58;;;;;;;109.23;37.17;;;;;2.60;102802.00;;;;10448811;28;20206;-80
2022/01/25 20:40:01;;;;;;;118.00;38.73;;;;;2.60;102809.00;;;;10448242;28;20204;-80
2022/01/25 20:45:19;;;;;;;119.20;36.07;;;;;2.60;102810.00;;;;10478692;28;20288;-80
2022/01/25 20:50:21;;;;;;;118.00;36.87;;;;;2.60;102824.00;;;;10440274;28;20198;-78
2022/01/25 20:55:23;;;;;;;110.23;34.90;;;;;2.70;102820.00;;;;10463008;28;20231;-80
2022/01/25 21:00:35;;;;;;;107.87;32.27;;;;;2.70;102820.00;;;;10464270;28;20707;-79
2022/01/25 21:10:59;;;;;;;89.37;30.93;;;;;2.60;102829.00;;;;10481041;28;20311;-77
2022/01/25 21:16:03;;;;;;;91.80;30.40;;;;;2.60;102826.00;;;;10454740;28;20218;-77
2022/01/25 21:21:09;;;;;;;87.90;31.37;;;;;2.60;102814.00;;;;10455257;28;20198;-78
2022/01/25 21:26:24;;;;;;;93.83;32.37;;;;;2.60;102823.00;;;;10454522;28;20201;-78
2022/01/25 21:31:35;;;;;;;100.73;34.10;;;;;2.60;102828.00;;;;10465402;28;20555;-78
2022/01/25 21:36:42;;;;;;;93.73;32.87;;;;;2.60;102839.00;;;;10445968;28;20260;-78
2022/01/25 21:41:51;;;;;;;88.30;32.43;;;;;2.60;102835.00;;;;10451367;28;20251;-78
2022/01/25 21:46:53;;;;;;;101.60;35.00;;;;;2.60;102855.00;;;;10431656;28;20244;-78
2022/01/25 21:51:55;;;;;;;100.27;34.77;;;;;2.60;102839.00;;;;10471395;28;20219;-78
2022/01/25 21:56:57;;;;;;;96.20;36.17;;;;;2.60;102843.00;;;;10438982;28;20206;-78
2022/01/25 22:01:59;;;;;;;94.37;35.00;;;;;2.60;102842.00;;;;10468326;28;20201;-78
2022/01/25 22:07:08;;;;;;;94.50;35.73;;;;;2.60;102832.00;;;;10487224;28;20245;-78
2022/01/25 22:12:19;;;;;;;102.00;37.40;;;;;2.60;102837.00;;;;10469852;28;20251;-78
2022/01/25 22:17:23;;;;;;;104.13;35.93;;;;;2.60;102835.00;;;;10486710;28;20185;-78
2022/01/25 22:22:25;;;;;;;108.73;37.37;;;;;2.60;102836.00;;;;10452239;28;20197;-77
2022/01/25 22:27:28;;;;;;;106.27;36.90;;;;;2.60;102830.00;;;;10486975;28;20189;-78
2022/01/25 22:32:30;;;;;;;110.90;37.47;;;;;2.60;102829.00;;;;10469164;28;20196;-77
2022/01/25 22:37:32;;;;;;;114.53;41.17;;;;;2.60;102817.00;;;;10436829;28;20565;-78
2022/01/25 22:42:34;;;;;;;108.07;40.43;;;;;2.60;102822.00;;;;10468623;28;20198;-78
2022/01/25 22:47:41;;;;;;;115.67;40.00;;;;;2.60;102825.00;;;;10468721;28;20197;-77
2022/01/25 22:52:45;;;;;;;132.97;43.17;;;;;2.60;102830.00;;;;10501701;28;20656;-77
2022/01/25 22:57:47;;;;;;;115.37;39.73;;;;;2.60;102826.00;;;;10451964;28;20576;-77
2022/01/25 23:02:49;;;;;;;119.10;41.47;;;;;2.60;102824.00;;;;10484586;28;20240;-78
2022/01/25 23:07:51;;;;;;;111.37;40.40;;;;;2.60;102831.00;;;;10499672;28;20244;-78
2022/01/25 23:18:20;;;;;;;120.83;43.07;;;;;2.60;102838.00;;;;10451421;28;20200;-78
2022/01/25 23:23:31;;;;;;;124.60;40.37;;;;;2.60;102838.00;;;;10449963;28;20212;-78
2022/01/25 23:28:38;;;;;;;136.60;43.97;;;;;2.60;102835.00;;;;10467402;28;20647;-77
2022/01/25 23:38:48;;;;;;;117.83;42.33;;;;;2.60;102848.00;;;;10450988;28;20201;-78
2022/01/25 23:43:59;;;;;;;136.93;44.93;;;;;2.60;102834.00;;;;10481648;28;20190;-78
2022/01/25 23:49:03;;;;;;;134.90;43.63;;;;;2.60;102833.00;;;;10452344;28;20202;-78
2022/01/25 23:59:36;;;;;;;131.37;43.53;;;;;2.60;102823.00;;;;10441810;28;20201;-78
